createdAt,value
2018-09-28T00:01:15.227Z,7.70
2018-09-28T00:03:43.627Z,7.27
2018-09-28T00:06:11.997Z,7.23
2018-09-28T00:08:40.395Z,8.03
2018-09-28T00:11:08.767Z,7.80
2018-09-28T00:13:37.220Z,8.80
2018-09-28T00:16:05.562Z,8.80
2018-09-28T00:18:33.963Z,8.77
2018-09-28T00:21:02.325Z,8.73
2018-09-28T00:23:30.720Z,8.90
2018-09-28T00:25:59.159Z,9.53
2018-09-28T00:28:27.547Z,8.17
2018-09-28T00:30:55.923Z,8.63
2018-09-28T00:33:24.314Z,9.60
2018-09-28T00:35:52.696Z,9.00
2018-09-28T00:38:21.109Z,9.20
2018-09-28T00:40:49.483Z,9.80
2018-09-28T00:43:17.884Z,9.67
2018-09-28T00:45:46.541Z,10.70
2018-09-28T00:48:15.349Z,11.70
2018-09-28T00:50:43.722Z,11.47
2018-09-28T00:53:12.128Z,12.23
2018-09-28T00:55:40.506Z,12.33
2018-09-28T00:58:08.915Z,12.03
2018-09-28T01:00:37.303Z,12.67
2018-09-28T01:03:05.701Z,13.23
2018-09-28T01:05:34.083Z,14.87
2018-09-28T01:08:02.495Z,14.03
2018-09-28T01:10:30.870Z,15.40
2018-09-28T01:12:59.267Z,15.80
2018-09-28T01:15:27.637Z,16.20
2018-09-28T01:17:56.051Z,16.47
2018-09-28T01:20:24.453Z,20.50
2018-09-28T01:22:52.835Z,15.83
2018-09-28T01:25:21.237Z,12.57
2018-09-28T01:27:49.630Z,7.80
2018-09-28T01:30:18.067Z,4.00
2018-09-28T01:32:46.473Z,3.40
2018-09-28T01:35:14.878Z,2.70
2018-09-28T01:37:43.263Z,2.50
2018-09-28T01:40:11.662Z,2.20
2018-09-28T01:42:40.038Z,3.80
2018-09-28T01:45:08.444Z,2.77
2018-09-28T01:47:36.818Z,2.97
2018-09-28T01:50:05.230Z,3.90
2018-09-28T01:52:33.631Z,2.57
2018-09-28T01:55:02.036Z,4.60
2018-09-28T01:57:30.409Z,3.90
2018-09-28T01:59:58.843Z,3.70
2018-09-28T02:02:27.525Z,3.17
2018-09-28T02:04:55.963Z,3.43
2018-09-28T02:07:24.532Z,3.50
2018-09-28T02:09:52.927Z,3.50
2018-09-28T02:12:21.318Z,3.77
2018-09-28T02:14:49.709Z,5.57
2018-09-28T02:17:18.077Z,3.90
2018-09-28T02:19:46.483Z,3.60
2018-09-28T02:22:14.859Z,4.00
2018-09-28T02:24:43.257Z,4.03
2018-09-28T02:27:11.658Z,4.30
2018-09-28T02:29:40.062Z,5.00
2018-09-28T02:32:08.443Z,3.70
2018-09-28T02:34:36.846Z,2.97
2018-09-28T02:37:05.223Z,2.80
2018-09-28T02:39:33.617Z,2.03
2018-09-28T02:42:01.999Z,2.40
2018-09-28T02:44:30.414Z,1.80
2018-09-28T02:46:58.790Z,1.70
2018-09-28T02:49:27.178Z,1.00
2018-09-28T02:51:55.543Z,1.30
2018-09-28T02:54:23.947Z,1.20
2018-09-28T02:56:52.383Z,1.63
2018-09-28T02:59:20.734Z,0.80
2018-09-28T03:01:49.110Z,1.37
2018-09-28T03:04:17.523Z,1.43
2018-09-28T03:06:45.891Z,1.30
2018-09-28T03:09:14.290Z,0.70
2018-09-28T03:11:42.679Z,1.27
2018-09-28T03:14:11.095Z,1.20
2018-09-28T03:16:39.512Z,1.17
2018-09-28T03:19:07.880Z,1.27
2018-09-28T03:21:36.274Z,2.37
2018-09-28T03:24:04.660Z,1.43
2018-09-28T03:26:33.059Z,1.20
2018-09-28T03:29:01.450Z,1.60
2018-09-28T03:31:29.862Z,2.43
2018-09-28T03:33:58.247Z,2.27
2018-09-28T03:36:26.671Z,1.83
2018-09-28T03:38:55.043Z,2.40
2018-09-28T03:41:23.456Z,1.80
2018-09-28T03:43:51.851Z,2.20
2018-09-28T03:46:20.327Z,1.50
2018-09-28T03:48:48.715Z,1.97
2018-09-28T03:51:17.109Z,1.53
2018-09-28T03:53:45.491Z,2.27
2018-09-28T03:56:13.893Z,1.90
2018-09-28T03:58:42.270Z,1.43
2018-09-28T04:01:10.663Z,1.40
2018-09-28T04:03:39.030Z,1.57
2018-09-28T04:06:07.423Z,2.03
2018-09-28T04:08:35.794Z,1.60
2018-09-28T04:11:04.196Z,2.50
2018-09-28T04:13:33.012Z,1.67
2018-09-28T04:16:01.798Z,1.70
2018-09-28T04:18:30.165Z,1.80
2018-09-28T04:20:58.553Z,1.80
2018-09-28T04:23:26.921Z,2.53
2018-09-28T04:25:55.310Z,1.80
2018-09-28T04:28:23.701Z,1.47
2018-09-28T04:30:52.246Z,1.60
2018-09-28T04:33:20.613Z,1.97
2018-09-28T04:35:49.011Z,2.70
2018-09-28T04:38:17.390Z,1.97
2018-09-28T04:40:45.791Z,2.20
2018-09-28T04:43:14.167Z,1.40
2018-09-28T04:45:43.242Z,2.87
2018-09-28T04:48:11.578Z,1.83
2018-09-28T04:50:40.578Z,2.70
2018-09-28T04:53:09.485Z,1.80
2018-09-28T04:55:37.882Z,1.77
2018-09-28T04:58:06.285Z,2.00
2018-09-28T05:00:34.726Z,2.07
2018-09-28T05:03:03.081Z,2.53
2018-09-28T05:05:31.482Z,1.83
2018-09-28T05:07:59.866Z,2.90
2018-09-28T05:10:28.270Z,2.70
2018-09-28T05:12:56.685Z,2.23
2018-09-28T05:15:25.095Z,2.37
2018-09-28T05:17:53.469Z,2.20
2018-09-28T05:20:21.870Z,2.77
2018-09-28T05:22:50.259Z,2.10
2018-09-28T05:25:18.735Z,2.87
2018-09-28T05:27:47.089Z,2.63
2018-09-28T05:30:15.466Z,2.40
2018-09-28T05:32:43.999Z,3.47
2018-09-28T05:35:12.275Z,2.40
2018-09-28T05:37:40.711Z,2.87
2018-09-28T05:40:09.091Z,2.40
2018-09-28T05:42:37.530Z,3.87
2018-09-28T05:45:05.907Z,3.67
2018-09-28T05:47:34.307Z,2.97
2018-09-28T05:50:02.680Z,3.43
2018-09-28T05:52:31.083Z,4.10
2018-09-28T05:54:59.467Z,2.80
2018-09-28T05:57:27.866Z,3.00
2018-09-28T06:00:02.254Z,3.10
2018-09-28T06:02:35.962Z,2.90
2018-09-28T06:05:09.667Z,3.40
2018-09-28T06:07:38.309Z,3.47
2018-09-28T06:10:06.689Z,3.60
2018-09-28T06:12:35.114Z,3.10
2018-09-28T06:15:03.494Z,3.50
2018-09-28T06:17:31.893Z,2.60
2018-09-28T06:20:00.281Z,3.80
2018-09-28T06:22:28.681Z,4.70
2018-09-28T06:24:57.083Z,3.30
2018-09-28T06:27:25.514Z,3.90
2018-09-28T06:29:53.935Z,4.50
2018-09-28T06:32:22.334Z,3.20
2018-09-28T06:34:50.708Z,5.20
2018-09-28T06:37:19.102Z,3.83
2018-09-28T06:39:47.477Z,3.33
2018-09-28T06:42:15.912Z,4.30
2018-09-28T06:44:44.380Z,3.00
2018-09-28T06:47:12.712Z,2.77
2018-09-28T06:49:41.135Z,2.60
2018-09-28T06:52:09.530Z,4.13
2018-09-28T06:54:37.905Z,3.90
2018-09-28T06:57:06.301Z,2.80
2018-09-28T06:59:34.678Z,3.00
2018-09-28T07:02:03.079Z,2.63
2018-09-28T07:04:31.458Z,3.43
2018-09-28T07:06:59.861Z,3.17
2018-09-28T07:09:28.293Z,3.10
2018-09-28T07:11:56.737Z,4.00
2018-09-28T07:14:25.096Z,3.00
2018-09-28T07:16:53.510Z,3.07
2018-09-28T07:19:21.886Z,3.03
2018-09-28T07:21:50.277Z,2.50
2018-09-28T07:24:18.741Z,3.00
2018-09-28T07:26:47.077Z,3.20
2018-09-28T07:29:15.513Z,2.97
2018-09-28T07:31:43.882Z,2.23
2018-09-28T07:34:12.274Z,2.27
2018-09-28T07:36:40.783Z,2.70
2018-09-28T07:39:10.404Z,2.00
2018-09-28T07:41:39.004Z,4.23
2018-09-28T07:44:07.393Z,2.50
2018-09-28T07:46:35.797Z,2.70
2018-09-28T07:49:04.207Z,2.17
2018-09-28T07:51:32.601Z,2.57
2018-09-28T07:54:00.998Z,3.50
2018-09-28T07:56:29.394Z,2.47
2018-09-28T07:58:57.798Z,3.60
2018-09-28T08:01:26.235Z,3.17
2018-09-28T08:03:54.654Z,2.90
2018-09-28T08:06:23.019Z,3.57
2018-09-28T08:08:51.418Z,2.47
2018-09-28T08:11:19.794Z,2.13
2018-09-28T08:13:48.195Z,2.40
2018-09-28T08:16:16.576Z,2.10
2018-09-28T08:18:44.973Z,2.57
2018-09-28T08:21:13.426Z,2.90
2018-09-28T08:23:41.824Z,3.70
2018-09-28T08:26:10.259Z,2.60
2018-09-28T08:28:38.658Z,2.00
2018-09-28T08:31:07.038Z,2.30
2018-09-28T08:33:35.434Z,1.97
2018-09-28T08:36:03.914Z,1.90
2018-09-28T08:38:32.317Z,2.53
2018-09-28T08:41:00.698Z,1.80
2018-09-28T08:43:29.158Z,2.63
2018-09-28T08:45:57.494Z,2.07
2018-09-28T08:48:25.893Z,2.87
2018-09-28T08:50:54.275Z,2.23
2018-09-28T08:53:22.672Z,2.47
2018-09-28T08:55:51.055Z,2.60
2018-09-28T08:58:19.450Z,1.70
2018-09-28T09:00:47.826Z,2.03
2018-09-28T09:03:16.222Z,3.17
2018-09-28T09:05:44.590Z,3.07
2018-09-28T09:08:12.982Z,2.07
2018-09-28T09:10:41.351Z,2.50
2018-09-28T09:13:10.813Z,2.60
2018-09-28T09:15:39.195Z,2.60
2018-09-28T09:18:07.768Z,2.07
2018-09-28T09:20:36.076Z,2.20
2018-09-28T09:23:04.467Z,2.93
2018-09-28T09:25:32.981Z,2.40
2018-09-28T09:28:01.389Z,1.63
2018-09-28T09:30:29.793Z,2.20
2018-09-28T09:32:58.157Z,2.20
2018-09-28T09:35:26.808Z,2.30
2018-09-28T09:37:55.186Z,1.57
2018-09-28T09:40:23.585Z,2.87
2018-09-28T09:42:51.974Z,2.20
2018-09-28T09:45:20.381Z,2.20
2018-09-28T09:47:48.762Z,1.83
2018-09-28T09:50:17.163Z,2.57
2018-09-28T09:52:45.537Z,2.03
2018-09-28T09:55:13.946Z,1.80
2018-09-28T09:57:42.337Z,1.60
2018-09-28T10:00:10.741Z,2.87
2018-09-28T10:02:44.397Z,2.50
2018-09-28T10:05:12.794Z,1.90
2018-09-28T10:07:41.162Z,2.00
2018-09-28T10:10:09.558Z,2.00
2018-09-28T10:12:38.014Z,2.40
2018-09-28T10:15:06.530Z,2.10
2018-09-28T10:17:34.897Z,1.73
2018-09-28T10:20:03.292Z,2.20
2018-09-28T10:22:31.665Z,2.03
2018-09-28T10:25:00.070Z,2.20
2018-09-28T10:27:28.499Z,1.67
2018-09-28T10:29:56.885Z,1.60
2018-09-28T10:32:25.275Z,2.27
2018-09-28T10:34:53.670Z,1.53
2018-09-28T10:37:22.050Z,2.17
2018-09-28T10:39:50.694Z,1.63
2018-09-28T10:42:19.078Z,1.80
2018-09-28T10:44:49.227Z,2.10
2018-09-28T10:47:17.649Z,1.70
2018-09-28T10:49:46.062Z,1.37
2018-09-28T10:52:14.738Z,2.00
2018-09-28T10:54:42.986Z,2.50
2018-09-28T10:57:11.525Z,2.00
2018-09-28T10:59:39.958Z,1.80
2018-09-28T11:02:08.373Z,1.97
2018-09-28T11:04:36.949Z,1.90
2018-09-28T11:07:05.315Z,1.90
2018-09-28T11:09:33.772Z,2.50
2018-09-28T11:12:02.164Z,2.27
2018-09-28T11:14:30.670Z,1.90
2018-09-28T11:16:59.127Z,2.20
2018-09-28T11:19:28.351Z,1.83
2018-09-28T11:21:56.805Z,2.03
2018-09-28T11:24:25.271Z,2.10
2018-09-28T11:26:53.728Z,1.77
2018-09-28T11:29:22.179Z,1.80
2018-09-28T11:31:50.603Z,1.60
2018-09-28T11:34:19.039Z,1.80
2018-09-28T11:36:47.446Z,2.93
2018-09-28T11:39:15.868Z,1.90
2018-09-28T11:41:44.297Z,2.30
2018-09-28T11:44:12.758Z,2.50
2018-09-28T11:46:41.221Z,3.13
2018-09-28T11:49:09.626Z,2.30
2018-09-28T11:51:38.075Z,3.43
2018-09-28T11:54:06.553Z,2.07
2018-09-28T11:56:35.693Z,1.60
2018-09-28T11:59:04.118Z,2.30
2018-09-28T12:01:32.489Z,1.93
2018-09-28T12:04:00.893Z,1.70
2018-09-28T12:06:29.323Z,1.10
2018-09-28T12:08:57.685Z,1.67
2018-09-28T12:11:26.051Z,2.00
2018-09-28T12:13:54.455Z,1.60
2018-09-28T12:16:22.846Z,2.63
2018-09-28T12:18:51.307Z,2.20
2018-09-28T12:21:19.750Z,1.30
2018-09-28T12:23:48.114Z,2.00
2018-09-28T12:26:16.490Z,1.53
2018-09-28T12:28:44.910Z,1.57
2018-09-28T12:31:13.292Z,1.70
2018-09-28T12:33:41.716Z,2.27
2018-09-28T12:36:10.090Z,1.67
2018-09-28T12:38:38.489Z,2.10
2018-09-28T12:41:07.066Z,2.10
2018-09-28T12:43:35.483Z,1.23
2018-09-28T12:46:03.877Z,1.60
2018-09-28T12:48:32.273Z,1.57
2018-09-28T12:51:00.682Z,1.20
2018-09-28T12:53:29.104Z,1.30
2018-09-28T12:55:57.491Z,2.87
2018-09-28T12:58:25.870Z,1.80
2018-09-28T13:00:54.407Z,2.17
2018-09-28T13:03:22.697Z,1.73
2018-09-28T13:05:51.149Z,2.20
2018-09-28T13:08:19.581Z,2.20
2018-09-28T13:10:48.412Z,2.67
2018-09-28T13:13:17.466Z,1.20
2018-09-28T13:15:45.901Z,2.03
2018-09-28T13:18:14.309Z,2.50
2018-09-28T13:20:42.782Z,1.80
2018-09-28T13:23:11.113Z,1.93
2018-09-28T13:25:39.506Z,1.77
2018-09-28T13:28:07.903Z,1.90
2018-09-28T13:30:36.304Z,2.20
2018-09-28T13:33:04.762Z,2.00
2018-09-28T13:35:33.283Z,2.03
2018-09-28T13:38:01.658Z,1.70
2018-09-28T13:40:30.081Z,1.97
2018-09-28T13:42:58.456Z,2.17
2018-09-28T13:45:26.893Z,1.90
2018-09-28T13:47:55.297Z,1.37
2018-09-28T13:50:23.833Z,2.33
2018-09-28T13:52:52.204Z,2.00
2018-09-28T13:55:20.607Z,1.40
2018-09-28T13:57:48.987Z,1.40
2018-09-28T14:00:17.423Z,1.80
2018-09-28T14:02:45.864Z,1.87
2018-09-28T14:05:14.221Z,2.03
2018-09-28T14:07:42.593Z,1.77
2018-09-28T14:10:11.042Z,1.50
2018-09-28T14:12:39.482Z,1.13
2018-09-28T14:15:07.830Z,2.03
2018-09-28T14:17:36.234Z,1.47
2018-09-28T14:20:05.022Z,1.73
2018-09-28T14:22:33.542Z,1.80
2018-09-28T14:25:01.962Z,2.00
2018-09-28T14:27:30.339Z,1.93
2018-09-28T14:29:58.741Z,1.30
2018-09-28T14:32:27.175Z,1.90
2018-09-28T14:34:55.757Z,2.67
2018-09-28T14:37:24.125Z,1.67
2018-09-28T14:39:52.536Z,1.43
2018-09-28T14:42:21.152Z,1.67
2018-09-28T14:44:49.730Z,2.80
2018-09-28T14:47:18.041Z,2.23
2018-09-28T14:49:46.438Z,1.40
2018-09-28T14:52:14.981Z,1.87
2018-09-28T14:54:43.402Z,1.83
2018-09-28T14:57:12.252Z,2.50
2018-09-28T14:59:40.631Z,1.43
2018-09-28T15:02:09.118Z,1.90
2018-09-28T15:04:37.551Z,2.10
2018-09-28T15:07:05.915Z,2.20
2018-09-28T15:09:34.591Z,1.37
2018-09-28T15:12:03.000Z,1.13
2018-09-28T15:14:31.411Z,1.60
2018-09-28T15:16:59.821Z,1.80
2018-09-28T15:19:28.189Z,1.40
2018-09-28T15:21:56.591Z,1.30
2018-09-28T15:24:24.967Z,1.57
2018-09-28T15:26:53.369Z,1.53
2018-09-28T15:29:21.777Z,1.77
2018-09-28T15:31:50.215Z,1.60
2018-09-28T15:34:18.647Z,1.70
2018-09-28T15:36:47.132Z,1.30
2018-09-28T15:39:15.514Z,1.70
2018-09-28T15:41:43.945Z,2.00
2018-09-28T15:44:12.318Z,1.90
2018-09-28T15:46:40.721Z,1.90
2018-09-28T15:49:09.113Z,1.80
2018-09-28T15:51:37.529Z,1.17
2018-09-28T15:54:05.901Z,1.97
2018-09-28T15:56:34.320Z,2.10
2018-09-28T15:59:02.711Z,3.10
2018-09-28T16:01:31.132Z,2.27
2018-09-28T16:03:59.515Z,1.80
2018-09-28T16:06:27.937Z,2.00
2018-09-28T16:08:56.320Z,1.80
2018-09-28T16:11:24.726Z,2.70
2018-09-28T16:13:53.178Z,2.13
2018-09-28T16:16:21.578Z,2.13
2018-09-28T16:18:50.069Z,2.50
2018-09-28T16:21:18.533Z,2.30
2018-09-28T16:23:46.939Z,1.93
2018-09-28T16:26:15.334Z,1.80
2018-09-28T16:28:43.718Z,2.00
2018-09-28T16:31:12.126Z,1.70
2018-09-28T16:33:40.511Z,1.60
2018-09-28T16:36:08.958Z,1.30
2018-09-28T16:38:37.330Z,1.80
2018-09-28T16:41:05.905Z,2.33
2018-09-28T16:43:34.286Z,2.03
2018-09-28T16:46:02.681Z,1.40
2018-09-28T16:48:31.095Z,1.77
2018-09-28T16:50:59.541Z,1.53
2018-09-28T16:53:27.929Z,2.27
2018-09-28T16:55:56.339Z,1.83
2018-09-28T16:58:24.718Z,1.90
2018-09-28T17:00:53.198Z,1.53
2018-09-28T17:03:21.640Z,2.00
2018-09-28T17:05:50.041Z,1.80
2018-09-28T17:08:18.409Z,1.67
2018-09-28T17:10:46.977Z,1.83
2018-09-28T17:13:15.347Z,1.70
2018-09-28T17:15:43.751Z,2.30
2018-09-28T17:18:12.168Z,2.07
2018-09-28T17:20:40.543Z,2.60
2018-09-28T17:23:08.991Z,3.07
2018-09-28T17:25:38.063Z,3.33
2018-09-28T17:28:06.757Z,3.20
2018-09-28T17:30:35.292Z,2.93
2018-09-28T17:33:03.686Z,2.40
2018-09-28T17:35:32.070Z,2.90
2018-09-28T17:38:00.479Z,3.03
2018-09-28T17:40:28.898Z,2.57
2018-09-28T17:42:57.348Z,1.83
2018-09-28T17:45:25.726Z,1.80
2018-09-28T17:47:54.128Z,5.20
2018-09-28T17:50:22.505Z,2.70
2018-09-28T17:52:51.022Z,3.10
2018-09-28T17:55:19.419Z,3.40
2018-09-28T17:57:48.002Z,3.43
2018-09-28T18:00:16.403Z,3.13
2018-09-28T18:02:44.822Z,5.43
2018-09-28T18:05:13.205Z,7.10
2018-09-28T18:07:41.619Z,5.00
2018-09-28T18:10:10.273Z,3.10
2018-09-28T18:12:38.874Z,3.90
2018-09-28T18:15:07.362Z,3.40
2018-09-28T18:17:35.871Z,2.73
2018-09-28T18:20:04.577Z,3.00
2018-09-28T18:22:33.005Z,2.53
2018-09-28T18:25:01.489Z,2.60
2018-09-28T18:27:29.930Z,2.53
2018-09-28T18:29:58.492Z,2.33
2018-09-28T18:32:26.883Z,2.37
2018-09-28T18:34:55.375Z,2.27
2018-09-28T18:37:23.779Z,2.07
2018-09-28T18:39:52.267Z,3.07
2018-09-28T18:42:20.725Z,2.80
2018-09-28T18:44:49.228Z,3.20
2018-09-28T18:47:17.846Z,3.83
2018-09-28T18:49:46.402Z,3.60
2018-09-28T18:52:14.835Z,3.07
2018-09-28T18:54:43.236Z,2.93
2018-09-28T18:57:11.611Z,2.90
2018-09-28T18:59:40.027Z,3.07
2018-09-28T19:02:08.426Z,2.97
2018-09-28T19:04:36.824Z,2.30
2018-09-28T19:07:05.465Z,2.23
2018-09-28T19:09:33.866Z,3.03
2018-09-28T19:12:02.410Z,2.50
2018-09-28T19:14:30.782Z,2.00
2018-09-28T19:16:59.330Z,3.50
2018-09-28T19:19:27.715Z,3.20
2018-09-28T19:21:56.273Z,4.10
2018-09-28T19:24:24.651Z,2.00
2018-09-28T19:26:53.046Z,2.00
2018-09-28T19:29:21.453Z,1.97
2018-09-28T19:31:49.957Z,1.70
2018-09-28T19:34:18.460Z,2.10
2018-09-28T19:36:46.863Z,1.97
2018-09-28T19:39:15.243Z,3.40
2018-09-28T19:41:43.887Z,2.20
2018-09-28T19:44:12.274Z,1.60
2018-09-28T19:46:40.665Z,2.00
2018-09-28T19:49:09.159Z,1.60
2018-09-28T19:51:37.606Z,1.60
2018-09-28T19:54:06.002Z,1.47
2018-09-28T19:56:34.401Z,1.83
2018-09-28T19:59:02.790Z,1.17
2018-09-28T20:01:31.201Z,1.63
2018-09-28T20:04:00.259Z,1.80
2018-09-28T20:06:28.990Z,1.60
2018-09-28T20:08:57.367Z,1.73
2018-09-28T20:11:25.778Z,1.57
2018-09-28T20:13:54.162Z,1.70
2018-09-28T20:16:22.563Z,2.10
2018-09-28T20:18:50.966Z,1.53
2018-09-28T20:21:19.565Z,2.47
2018-09-28T20:23:47.928Z,1.90
2018-09-28T20:26:16.397Z,2.00
2018-09-28T20:28:44.799Z,1.30
2018-09-28T20:31:13.194Z,1.20
2018-09-28T20:33:41.567Z,1.50
2018-09-28T20:36:09.958Z,1.20
2018-09-28T20:38:38.427Z,1.23
2018-09-28T20:41:06.754Z,1.93
2018-09-28T20:43:35.124Z,1.43
2018-09-28T20:46:03.525Z,1.60
2018-09-28T20:48:31.912Z,1.10
2018-09-28T20:51:00.311Z,2.00
2018-09-28T20:53:28.869Z,1.73
2018-09-28T20:55:57.270Z,1.90
2018-09-28T20:58:25.658Z,1.40
2018-09-28T21:00:54.045Z,1.07
2018-09-28T21:03:22.451Z,1.80
2018-09-28T21:05:50.822Z,1.40
2018-09-28T21:08:19.230Z,1.70
2018-09-28T21:10:47.601Z,1.43
2018-09-28T21:13:15.994Z,1.20
2018-09-28T21:15:44.362Z,1.43
2018-09-28T21:18:12.782Z,1.20
2018-09-28T21:20:41.207Z,1.13
2018-09-28T21:23:09.595Z,1.53
2018-09-28T21:25:37.973Z,1.00
2018-09-28T21:28:06.385Z,1.83
2018-09-28T21:30:34.757Z,1.70
2018-09-28T21:33:03.150Z,1.50
2018-09-28T21:35:31.627Z,1.60
2018-09-28T21:37:59.974Z,1.43
2018-09-28T21:40:28.344Z,1.83
2018-09-28T21:42:56.747Z,1.63
2018-09-28T21:45:25.114Z,1.77
2018-09-28T21:47:53.517Z,2.37
2018-09-28T21:50:21.928Z,1.40
2018-09-28T21:52:50.317Z,1.50
2018-09-28T21:55:18.687Z,1.60
2018-09-28T21:57:47.066Z,1.70
2018-09-28T22:00:15.435Z,1.23
2018-09-28T22:02:43.911Z,1.40
2018-09-28T22:05:12.278Z,1.40
2018-09-28T22:07:40.685Z,1.90
2018-09-28T22:10:09.061Z,2.43
2018-09-28T22:12:37.421Z,1.70
2018-09-28T22:15:05.813Z,1.30
2018-09-28T22:17:34.190Z,2.03
2018-09-28T22:20:03.069Z,1.50
2018-09-28T22:22:31.529Z,1.90
2018-09-28T22:24:59.923Z,1.90
2018-09-28T22:27:28.395Z,2.60
2018-09-28T22:29:56.784Z,2.77
2018-09-28T22:32:25.180Z,2.17
2018-09-28T22:34:53.557Z,2.43
2018-09-28T22:37:21.923Z,1.90
2018-09-28T22:39:50.310Z,2.17
2018-09-28T22:42:18.683Z,2.20
2018-09-28T22:44:47.074Z,2.23
2018-09-28T22:47:15.451Z,1.83
2018-09-28T22:49:43.850Z,2.00
2018-09-28T22:52:12.241Z,2.20
2018-09-28T22:54:40.631Z,1.80
2018-09-28T22:57:08.993Z,2.00
2018-09-28T22:59:37.386Z,1.77
2018-09-28T23:02:05.752Z,1.93
2018-09-28T23:04:34.137Z,1.70
2018-09-28T23:07:02.509Z,2.10
2018-09-28T23:09:30.906Z,1.97
2018-09-28T23:11:59.345Z,2.10
2018-09-28T23:14:27.713Z,2.40
2018-09-28T23:16:56.086Z,2.00
2018-09-28T23:19:24.482Z,1.70
2018-09-28T23:21:52.941Z,2.40
2018-09-28T23:24:26.860Z,2.73
2018-09-28T23:26:55.229Z,1.90
2018-09-28T23:29:23.641Z,2.20
2018-09-28T23:31:52.006Z,2.40
2018-09-28T23:34:20.393Z,2.43
2018-09-28T23:36:48.757Z,2.97
2018-09-28T23:39:17.149Z,2.20
2018-09-28T23:41:45.518Z,2.03
2018-09-28T23:44:13.909Z,1.63
2018-09-28T23:46:42.265Z,2.60
2018-09-28T23:49:10.654Z,1.60
2018-09-28T23:51:39.022Z,2.17
2018-09-28T23:54:07.413Z,2.50
2018-09-28T23:56:35.807Z,2.40
2018-09-28T23:59:04.261Z,1.90
